Voyager Of The Seas — C6SE5 — position and weather

sailwx.info

Track history (hours):
 
Tides and Currents Weather Stations Pressure Air Temp Water Temp Dewpoint Dewpoint Depression Visibility Wind Speed Wind Dir Waves Ship Positions

Voyager Of The Seas

Operator: Royal Caribbean Cruises Ltd

Last reported at 2015-May-27 22:20 UTC. Time now 2015-May-28 23:50 UTC.
Position N 35°46' E 141°03'.

Type: Passenger vessel. MMSI: 311317000.

Date/timePositionNaut miles runAvg speedWind from/ knotsBaromVisibWave heightAir tempDewpointWater temp
2015-May-27 22:20N 35°46' E 141°03'2120.0
2015-May-27 21:16N 35°27' E 140°53'1521.1
2015-May-27 20:32N 35°16' E 140°39'2119.7
2015-May-27 19:29N 35°03' E 140°20'1818.5
2015-May-27 18:30N 34°52' E 140°02'1515.6
2015-May-27 17:32N 34°54' E 139°44'1717.2
2015-May-27 16:33N 35°11' E 139°46'1211.9
2015-May-27 15:33N 35°22' E 139°42'6 5.5
2015-May-27 14:33N 35°28' E 139°41'0 0.0
2015-May-27 13:33N 35°28' E 139°41'0 0.0
2015-May-27 12:33N 35°28' E 139°41'0 0.0
2015-May-27 11:33N 35°28' E 139°41'0 0.0
2015-May-27 10:33N 35°28' E 139°41'0 0.0
2015-May-27 09:33N 35°28' E 139°41'0 0.0
2015-May-27 08:33N 35°28' E 139°41'0 0.0
2015-May-27 07:33N 35°28' E 139°41'0 0.0
2015-May-27 06:33N 35°28' E 139°41'0 0.0
2015-May-27 05:33N 35°28' E 139°41'0 0.0
2015-May-27 04:33N 35°28' E 139°41'4 4.4
2015-May-27 03:33N 35°25' E 139°46'1110.6
2015-May-27 02:33N 35°15' E 139°47'1212.0
2015-May-27 01:33N 35°03' E 139°44'1916.1
2015-May-27 00:23N 34°46' E 139°34'1215.1
2015-May-26 23:33N 34°36' E 139°25'1515.4
2015-May-26 22:33N 34°31' E 139°07'20917.4
2015-May-26 10:33N 33°53' E 134°59'1918.7
2015-May-26 09:33N 34°11' E 134°58'1616.0
2015-May-26 08:33N 34°26' E 135°05'1616.1
2015-May-26 07:33N 34°40' E 135°15'3 2.6
2015-May-26 06:31N 34°41' E 135°12'0 0.0
2015-May-26 05:31N 34°41' E 135°12'0 0.0
2015-May-26 04:25N 34°41' E 135°12'0 0.1
2015-May-26 03:31N 34°41' E 135°12'0 0.0
2015-May-26 02:31N 34°41' E 135°12'0 0.0
2015-May-26 01:31N 34°41' E 135°12'0 0.0
2015-May-26 00:25N 34°41' E 135°12'0 0.0
2015-May-25 23:31N 34°41' E 135°12'0 0.0
2015-May-25 22:25N 34°41' E 135°12'0 0.0
2015-May-25 21:31N 34°41' E 135°12'0 0.0
2015-May-25 20:33N 34°41' E 135°12'6 6.1
2015-May-25 19:33N 34°36' E 135°16'1414.0
2015-May-25 18:33N 34°25' E 135°06'1514.6
2015-May-25 17:33N 34°11' E 134°59'36514.4
2015-May-24 16:08N 32°55' E 127°51'1719.1
2015-May-24 15:16N 33°07' E 127°36'1619.2
2015-May-24 14:26N 33°18' E 127°23'14320.5
2015-May-24 07:27N 34°51' E 125°11'1921.7
2015-May-24 06:33N 35°08' E 124°59'2322.0
2015-May-24 05:30N 35°28' E 124°44'2122.2
2015-May-24 04:33N 35°46' E 124°31'2522.2
2015-May-24 03:25N 36°07' E 124°15'2621.8
2015-May-24 02:14N 36°30' E 123°59'1521.4
2015-May-24 01:32N 36°43' E 123°50'2121.1
2015-May-24 00:33N 37°00' E 123°36'2120.9
2015-May-23 23:33N 37°19' E 123°25'2121.2
2015-May-23 22:33N 37°33' E 123°04'2222.2
2015-May-23 21:34N 37°43' E 122°40'2222.5
2015-May-23 20:34N 37°57' E 122°17'2222.4
2015-May-23 19:33N 38°09' E 121°53'2221.8
2015-May-23 18:33N 38°20' E 121°29'3020.3
2015-May-23 17:05N 38°31' E 120°54'13420.4
2015-May-23 10:33N 38°55' E 118°05'1212.3
2015-May-23 09:33N 38°58' E 117°50'1 0.9
2015-May-23 08:22N 38°59' E 117°49'0 0.0
2015-May-23 07:28N 38°59' E 117°49'0 0.0
2015-May-23 05:28N 38°59' E 117°49'0 0.0
2015-May-23 04:28N 38°59' E 117°49'0 0.0
2015-May-23 03:22N 38°59' E 117°49'0 0.0
2015-May-23 02:22N 38°59' E 117°49'0 0.0
2015-May-23 01:28N 38°59' E 117°49'0 0.0
2015-May-23 00:22N 38°59' E 117°49'0 0.0
2015-May-22 23:22N 38°59' E 117°49'0 0.0
2015-May-22 22:22N 38°59' E 117°49'2 1.9
2015-May-22 21:33N 38°58' E 117°51'1111.5
2015-May-22 20:33N 38°56' E 118°05'9912.3
2015-May-22 12:29N 38°41' E 120°11'1112.0
2015-May-22 11:33N 38°39' E 120°26'1612.1
2015-May-22 10:15N 38°37' E 120°46'910.4
2015-May-22 09:25N 38°36' E 120°57'14413.1
2015-May-21 22:25N 37°34' E 123°42'3314.8
2015-May-21 20:11N 37°21' E 124°21'914.4
2015-May-21 19:32N 37°17' E 124°31'2014.0
2015-May-21 18:05N 37°09' E 124°55'200 6.0
2015-May-20 08:33N 33°57' E 126°01'1313.4
2015-May-20 07:33N 33°49' E 126°14'1713.4
2015-May-20 06:17N 33°45' E 126°34'1214.3
2015-May-20 05:26N 33°45' E 126°49'16816.5
2015-May-19 19:14N 34°32' E 130°04'1318.8
2015-May-19 18:33N 34°40' E 130°17'  
Track history (hours):
 
Tides and Currents Weather Stations Pressure Air Temp Water Temp Dewpoint Dewpoint Depression Visibility Wind Speed Wind Dir Waves Ship Positions

Voyager Of The Seas

Operator: Royal Caribbean Cruises Ltd

Last reported at 2015-May-27 22:20 UTC. Time now 2015-May-28 23:50 UTC.
Position N 35°46' E 141°03'.

Type: Passenger vessel. MMSI: 311317000.

Date/timePositionNaut miles runAvg speedWind from/ knotsBaromVisibWave heightAir tempDewpointWater temp
2015-May-27 22:20N 35°46' E 141°03'2120.0
2015-May-27 21:16N 35°27' E 140°53'1521.1
2015-May-27 20:32N 35°16' E 140°39'2119.7
2015-May-27 19:29N 35°03' E 140°20'1818.5
2015-May-27 18:30N 34°52' E 140°02'1515.6
2015-May-27 17:32N 34°54' E 139°44'1717.2
2015-May-27 16:33N 35°11' E 139°46'1211.9
2015-May-27 15:33N 35°22' E 139°42'6 5.5
2015-May-27 14:33N 35°28' E 139°41'0 0.0
2015-May-27 13:33N 35°28' E 139°41'0 0.0
2015-May-27 12:33N 35°28' E 139°41'0 0.0
2015-May-27 11:33N 35°28' E 139°41'0 0.0
2015-May-27 10:33N 35°28' E 139°41'0 0.0
2015-May-27 09:33N 35°28' E 139°41'0 0.0
2015-May-27 08:33N 35°28' E 139°41'0 0.0
2015-May-27 07:33N 35°28' E 139°41'0 0.0
2015-May-27 06:33N 35°28' E 139°41'0 0.0
2015-May-27 05:33N 35°28' E 139°41'0 0.0
2015-May-27 04:33N 35°28' E 139°41'4 4.4
2015-May-27 03:33N 35°25' E 139°46'1110.6
2015-May-27 02:33N 35°15' E 139°47'1212.0
2015-May-27 01:33N 35°03' E 139°44'1916.1
2015-May-27 00:23N 34°46' E 139°34'1215.1
2015-May-26 23:33N 34°36' E 139°25'1515.4
2015-May-26 22:33N 34°31' E 139°07'20917.4
2015-May-26 10:33N 33°53' E 134°59'1918.7
2015-May-26 09:33N 34°11' E 134°58'1616.0
2015-May-26 08:33N 34°26' E 135°05'1616.1
2015-May-26 07:33N 34°40' E 135°15'3 2.6
2015-May-26 06:31N 34°41' E 135°12'0 0.0
2015-May-26 05:31N 34°41' E 135°12'0 0.0
2015-May-26 04:25N 34°41' E 135°12'0 0.1
2015-May-26 03:31N 34°41' E 135°12'0 0.0
2015-May-26 02:31N 34°41' E 135°12'0 0.0
2015-May-26 01:31N 34°41' E 135°12'0 0.0
2015-May-26 00:25N 34°41' E 135°12'0 0.0
2015-May-25 23:31N 34°41' E 135°12'0 0.0
2015-May-25 22:25N 34°41' E 135°12'0 0.0
2015-May-25 21:31N 34°41' E 135°12'0 0.0
2015-May-25 20:33N 34°41' E 135°12'6 6.1
2015-May-25 19:33N 34°36' E 135°16'1414.0
2015-May-25 18:33N 34°25' E 135°06'1514.6
2015-May-25 17:33N 34°11' E 134°59'36514.4
2015-May-24 16:08N 32°55' E 127°51'1719.1
2015-May-24 15:16N 33°07' E 127°36'1619.2
2015-May-24 14:26N 33°18' E 127°23'14320.5
2015-May-24 07:27N 34°51' E 125°11'1921.7
2015-May-24 06:33N 35°08' E 124°59'2322.0
2015-May-24 05:30N 35°28' E 124°44'2122.2
2015-May-24 04:33N 35°46' E 124°31'2522.2
2015-May-24 03:25N 36°07' E 124°15'2621.8
2015-May-24 02:14N 36°30' E 123°59'1521.4
2015-May-24 01:32N 36°43' E 123°50'2121.1
2015-May-24 00:33N 37°00' E 123°36'2120.9
2015-May-23 23:33N 37°19' E 123°25'2121.2
2015-May-23 22:33N 37°33' E 123°04'2222.2
2015-May-23 21:34N 37°43' E 122°40'2222.5
2015-May-23 20:34N 37°57' E 122°17'2222.4
2015-May-23 19:33N 38°09' E 121°53'2221.8
2015-May-23 18:33N 38°20' E 121°29'3020.3
2015-May-23 17:05N 38°31' E 120°54'13420.4
2015-May-23 10:33N 38°55' E 118°05'1212.3
2015-May-23 09:33N 38°58' E 117°50'1 0.9
2015-May-23 08:22N 38°59' E 117°49'0 0.0
2015-May-23 07:28N 38°59' E 117°49'0 0.0
2015-May-23 05:28N 38°59' E 117°49'0 0.0
2015-May-23 04:28N 38°59' E 117°49'0 0.0
2015-May-23 03:22N 38°59' E 117°49'0 0.0
2015-May-23 02:22N 38°59' E 117°49'0 0.0
2015-May-23 01:28N 38°59' E 117°49'0 0.0
2015-May-23 00:22N 38°59' E 117°49'0 0.0
2015-May-22 23:22N 38°59' E 117°49'0 0.0
2015-May-22 22:22N 38°59' E 117°49'2 1.9
2015-May-22 21:33N 38°58' E 117°51'1111.5
2015-May-22 20:33N 38°56' E 118°05'9912.3
2015-May-22 12:29N 38°41' E 120°11'1112.0
2015-May-22 11:33N 38°39' E 120°26'1612.1
2015-May-22 10:15N 38°37' E 120°46'910.4
2015-May-22 09:25N 38°36' E 120°57'14413.1
2015-May-21 22:25N 37°34' E 123°42'3314.8
2015-May-21 20:11N 37°21' E 124°21'914.4
2015-May-21 19:32N 37°17' E 124°31'2014.0
2015-May-21 18:05N 37°09' E 124°55'200 6.0
2015-May-20 08:33N 33°57' E 126°01'1313.4
2015-May-20 07:33N 33°49' E 126°14'1713.4
2015-May-20 06:17N 33°45' E 126°34'1214.3
2015-May-20 05:26N 33°45' E 126°49'16816.5
2015-May-19 19:14N 34°32' E 130°04'1318.8
2015-May-19 18:33N 34°40' E 130°17'  

Dump ship's entire track history